sensor_id;sensor_type;location;lat;lon;timestamp;P1;durP1;ratioP1;P2;durP2;ratioP2
36185;SDS011;22228;53.222;7.446;2024-03-25T00:02:11;9.80;;;2.83;;
36185;SDS011;22228;53.222;7.446;2024-03-25T00:05:31;12.10;;;2.70;;
36185;SDS011;22228;53.222;7.446;2024-03-25T00:08:52;11.40;;;2.47;;
36185;SDS011;22228;53.222;7.446;2024-03-25T00:12:13;14.33;;;3.07;;
36185;SDS011;22228;53.222;7.446;2024-03-25T00:15:34;8.50;;;2.60;;
36185;SDS011;22228;53.222;7.446;2024-03-25T00:18:56;11.20;;;2.57;;
36185;SDS011;22228;53.222;7.446;2024-03-25T00:22:15;11.73;;;2.73;;
36185;SDS011;22228;53.222;7.446;2024-03-25T00:25:36;8.80;;;2.60;;
36185;SDS011;22228;53.222;7.446;2024-03-25T00:28:57;10.57;;;2.53;;
36185;SDS011;22228;53.222;7.446;2024-03-25T00:32:19;14.80;;;3.10;;
36185;SDS011;22228;53.222;7.446;2024-03-25T00:35:38;13.70;;;2.60;;
36185;SDS011;22228;53.222;7.446;2024-03-25T00:38:59;14.73;;;3.23;;
36185;SDS011;22228;53.222;7.446;2024-03-25T00:42:18;14.07;;;3.23;;
36185;SDS011;22228;53.222;7.446;2024-03-25T00:45:39;17.37;;;3.40;;
36185;SDS011;22228;53.222;7.446;2024-03-25T00:49:00;6.40;;;1.60;;
36185;SDS011;22228;53.222;7.446;2024-03-25T00:52:20;9.20;;;1.60;;
36185;SDS011;22228;53.222;7.446;2024-03-25T00:55:41;5.73;;;1.47;;
36185;SDS011;22228;53.222;7.446;2024-03-25T00:59:01;4.57;;;1.10;;
36185;SDS011;22228;53.222;7.446;2024-03-25T01:02:22;5.30;;;1.30;;
36185;SDS011;22228;53.222;7.446;2024-03-25T01:05:48;9.20;;;1.77;;
36185;SDS011;22228;53.222;7.446;2024-03-25T01:09:09;5.57;;;1.80;;
36185;SDS011;22228;53.222;7.446;2024-03-25T01:12:28;8.03;;;2.03;;
36185;SDS011;22228;53.222;7.446;2024-03-25T04:02:16;15.57;;;3.53;;
36185;SDS011;22228;53.222;7.446;2024-03-25T04:05:36;12.50;;;2.73;;
36185;SDS011;22228;53.222;7.446;2024-03-25T04:08:57;13.60;;;2.73;;
36185;SDS011;22228;53.222;7.446;2024-03-25T04:12:17;10.50;;;3.00;;
36185;SDS011;22228;53.222;7.446;2024-03-25T04:15:38;12.70;;;2.80;;
36185;SDS011;22228;53.222;7.446;2024-03-25T04:19:00;16.57;;;2.53;;
36185;SDS011;22228;53.222;7.446;2024-03-25T04:22:21;11.97;;;3.13;;
36185;SDS011;22228;53.222;7.446;2024-03-25T04:25:40;13.20;;;2.63;;
36185;SDS011;22228;53.222;7.446;2024-03-25T04:29:00;12.60;;;2.73;;
36185;SDS011;22228;53.222;7.446;2024-03-25T04:32:21;14.53;;;2.67;;
36185;SDS011;22228;53.222;7.446;2024-03-25T04:35:42;9.50;;;2.00;;
36185;SDS011;22228;53.222;7.446;2024-03-25T04:39:02;10.80;;;2.40;;
36185;SDS011;22228;53.222;7.446;2024-03-25T04:42:22;9.03;;;2.33;;
36185;SDS011;22228;53.222;7.446;2024-03-25T04:45:42;13.50;;;2.10;;
36185;SDS011;22228;53.222;7.446;2024-03-25T04:49:02;9.10;;;1.90;;
36185;SDS011;22228;53.222;7.446;2024-03-25T04:52:23;9.43;;;2.40;;
36185;SDS011;22228;53.222;7.446;2024-03-25T04:55:43;11.97;;;2.43;;
36185;SDS011;22228;53.222;7.446;2024-03-25T04:59:03;12.17;;;2.00;;
36185;SDS011;22228;53.222;7.446;2024-03-25T05:02:23;6.63;;;1.50;;
36185;SDS011;22228;53.222;7.446;2024-03-25T05:05:42;7.40;;;1.97;;
36185;SDS011;22228;53.222;7.446;2024-03-25T05:09:03;8.37;;;2.23;;
36185;SDS011;22228;53.222;7.446;2024-03-25T05:12:23;11.83;;;2.20;;
36185;SDS011;22228;53.222;7.446;2024-03-25T05:15:48;14.23;;;2.57;;
36185;SDS011;22228;53.222;7.446;2024-03-25T05:19:08;10.57;;;2.40;;
36185;SDS011;22228;53.222;7.446;2024-03-25T05:22:28;6.70;;;1.77;;
36185;SDS011;22228;53.222;7.446;2024-03-25T05:25:49;15.77;;;2.57;;
36185;SDS011;22228;53.222;7.446;2024-03-25T05:29:09;12.33;;;2.33;;
36185;SDS011;22228;53.222;7.446;2024-03-25T05:32:28;13.10;;;2.10;;
36185;SDS011;22228;53.222;7.446;2024-03-25T05:35:48;11.47;;;2.00;;
36185;SDS011;22228;53.222;7.446;2024-03-25T05:39:07;9.17;;;2.37;;
36185;SDS011;22228;53.222;7.446;2024-03-25T05:42:29;14.77;;;2.40;;
36185;SDS011;22228;53.222;7.446;2024-03-25T05:45:52;12.60;;;2.23;;
36185;SDS011;22228;53.222;7.446;2024-03-25T05:49:11;9.53;;;1.90;;
36185;SDS011;22228;53.222;7.446;2024-03-25T05:52:31;11.97;;;2.37;;
36185;SDS011;22228;53.222;7.446;2024-03-25T05:55:51;10.73;;;2.47;;
36185;SDS011;22228;53.222;7.446;2024-03-25T05:59:11;13.60;;;3.23;;
36185;SDS011;22228;53.222;7.446;2024-03-25T06:02:31;7.73;;;2.67;;
36185;SDS011;22228;53.222;7.446;2024-03-25T06:05:51;11.70;;;2.20;;
36185;SDS011;22228;53.222;7.446;2024-03-25T06:09:10;8.57;;;1.73;;
36185;SDS011;22228;53.222;7.446;2024-03-25T06:12:30;7.20;;;1.77;;
36185;SDS011;22228;53.222;7.446;2024-03-25T06:15:51;8.50;;;2.03;;
36185;SDS011;22228;53.222;7.446;2024-03-25T06:19:11;7.37;;;1.67;;
36185;SDS011;22228;53.222;7.446;2024-03-25T06:22:30;7.87;;;2.10;;
36185;SDS011;22228;53.222;7.446;2024-03-25T06:25:51;10.23;;;2.57;;
36185;SDS011;22228;53.222;7.446;2024-03-25T06:29:11;5.90;;;2.20;;
36185;SDS011;22228;53.222;7.446;2024-03-25T06:32:32;10.83;;;2.30;;
36185;SDS011;22228;53.222;7.446;2024-03-25T06:36:10;9.93;;;2.30;;
36185;SDS011;22228;53.222;7.446;2024-03-25T06:39:30;7.70;;;1.63;;
36185;SDS011;22228;53.222;7.446;2024-03-25T06:42:49;10.00;;;2.10;;
36185;SDS011;22228;53.222;7.446;2024-03-25T06:46:09;7.67;;;2.13;;
36185;SDS011;22228;53.222;7.446;2024-03-25T06:49:30;10.23;;;2.30;;
36185;SDS011;22228;53.222;7.446;2024-03-25T06:52:50;8.53;;;2.40;;
36185;SDS011;22228;53.222;7.446;2024-03-25T06:56:09;8.93;;;1.50;;
36185;SDS011;22228;53.222;7.446;2024-03-25T06:59:29;14.33;;;1.97;;
36185;SDS011;22228;53.222;7.446;2024-03-25T07:02:49;5.83;;;1.57;;
36185;SDS011;22228;53.222;7.446;2024-03-25T07:06:10;8.00;;;1.80;;
36185;SDS011;22228;53.222;7.446;2024-03-25T07:09:29;8.10;;;1.57;;
36185;SDS011;22228;53.222;7.446;2024-03-25T07:12:49;8.30;;;1.93;;
36185;SDS011;22228;53.222;7.446;2024-03-25T07:16:09;7.63;;;1.70;;
36185;SDS011;22228;53.222;7.446;2024-03-25T07:19:28;13.17;;;2.17;;
36185;SDS011;22228;53.222;7.446;2024-03-25T07:22:49;12.57;;;1.77;;
36185;SDS011;22228;53.222;7.446;2024-03-25T07:26:09;8.53;;;1.83;;
36185;SDS011;22228;53.222;7.446;2024-03-25T07:29:29;10.60;;;1.90;;
36185;SDS011;22228;53.222;7.446;2024-03-25T07:32:48;11.37;;;1.80;;
36185;SDS011;22228;53.222;7.446;2024-03-25T07:36:08;12.27;;;1.80;;
36185;SDS011;22228;53.222;7.446;2024-03-25T07:39:29;11.27;;;1.97;;
36185;SDS011;22228;53.222;7.446;2024-03-25T07:42:48;13.37;;;2.27;;
36185;SDS011;22228;53.222;7.446;2024-03-25T07:46:08;9.73;;;2.37;;
36185;SDS011;22228;53.222;7.446;2024-03-25T07:49:27;10.03;;;2.10;;
36185;SDS011;22228;53.222;7.446;2024-03-25T07:52:47;11.63;;;2.07;;
36185;SDS011;22228;53.222;7.446;2024-03-25T07:56:08;7.70;;;1.87;;
36185;SDS011;22228;53.222;7.446;2024-03-25T07:59:28;7.73;;;1.90;;
36185;SDS011;22228;53.222;7.446;2024-03-25T08:02:48;13.27;;;1.60;;
36185;SDS011;22228;53.222;7.446;2024-03-25T08:06:09;7.93;;;1.60;;
36185;SDS011;22228;53.222;7.446;2024-03-25T08:09:28;11.10;;;2.10;;
36185;SDS011;22228;53.222;7.446;2024-03-25T08:12:49;7.33;;;1.70;;
36185;SDS011;22228;53.222;7.446;2024-03-25T08:16:09;9.60;;;1.90;;
36185;SDS011;22228;53.222;7.446;2024-03-25T08:19:29;8.93;;;2.20;;
36185;SDS011;22228;53.222;7.446;2024-03-25T08:22:48;7.30;;;2.07;;
36185;SDS011;22228;53.222;7.446;2024-03-25T08:26:08;11.00;;;2.20;;
36185;SDS011;22228;53.222;7.446;2024-03-25T08:29:29;8.77;;;1.93;;
36185;SDS011;22228;53.222;7.446;2024-03-25T08:32:48;10.20;;;1.97;;
36185;SDS011;22228;53.222;7.446;2024-03-25T08:36:08;8.30;;;2.13;;
36185;SDS011;22228;53.222;7.446;2024-03-25T08:39:28;7.63;;;1.47;;
36185;SDS011;22228;53.222;7.446;2024-03-25T08:42:47;11.00;;;1.83;;
36185;SDS011;22228;53.222;7.446;2024-03-25T08:46:08;10.80;;;2.10;;
36185;SDS011;22228;53.222;7.446;2024-03-25T08:49:28;9.00;;;1.90;;
36185;SDS011;22228;53.222;7.446;2024-03-25T08:52:47;7.07;;;1.90;;
36185;SDS011;22228;53.222;7.446;2024-03-25T08:56:07;8.37;;;2.10;;
36185;SDS011;22228;53.222;7.446;2024-03-25T08:59:27;8.47;;;1.97;;
36185;SDS011;22228;53.222;7.446;2024-03-25T09:02:48;7.30;;;1.50;;
36185;SDS011;22228;53.222;7.446;2024-03-25T09:06:07;10.03;;;1.90;;
36185;SDS011;22228;53.222;7.446;2024-03-25T09:09:27;7.77;;;1.30;;
36185;SDS011;22228;53.222;7.446;2024-03-25T09:13:05;5.17;;;1.40;;
36185;SDS011;22228;53.222;7.446;2024-03-25T09:16:25;9.77;;;1.60;;
36185;SDS011;22228;53.222;7.446;2024-03-25T09:19:46;6.47;;;1.20;;
36185;SDS011;22228;53.222;7.446;2024-03-25T09:23:05;7.13;;;1.10;;
36185;SDS011;22228;53.222;7.446;2024-03-25T09:26:25;8.17;;;1.70;;
36185;SDS011;22228;53.222;7.446;2024-03-25T09:29:45;5.60;;;1.20;;
36185;SDS011;22228;53.222;7.446;2024-03-25T09:33:04;6.60;;;1.50;;
36185;SDS011;22228;53.222;7.446;2024-03-25T09:36:25;9.33;;;1.57;;
36185;SDS011;22228;53.222;7.446;2024-03-25T09:39:45;7.07;;;1.30;;
36185;SDS011;22228;53.222;7.446;2024-03-25T09:43:04;8.53;;;1.73;;
36185;SDS011;22228;53.222;7.446;2024-03-25T09:46:30;9.60;;;1.73;;
36185;SDS011;22228;53.222;7.446;2024-03-25T09:49:50;8.73;;;1.60;;
36185;SDS011;22228;53.222;7.446;2024-03-25T09:53:14;5.83;;;1.30;;
36185;SDS011;22228;53.222;7.446;2024-03-25T09:56:34;7.47;;;1.53;;
36185;SDS011;22228;53.222;7.446;2024-03-25T09:59:55;5.73;;;1.60;;
36185;SDS011;22228;53.222;7.446;2024-03-25T10:03:16;4.23;;;1.33;;
36185;SDS011;22228;53.222;7.446;2024-03-25T10:06:35;8.27;;;1.47;;
36185;SDS011;22228;53.222;7.446;2024-03-25T10:09:56;8.30;;;1.17;;
36185;SDS011;22228;53.222;7.446;2024-03-25T10:13:16;4.70;;;1.00;;
36185;SDS011;22228;53.222;7.446;2024-03-25T10:16:37;4.23;;;1.70;;
36185;SDS011;22228;53.222;7.446;2024-03-25T10:19:56;7.63;;;1.37;;
36185;SDS011;22228;53.222;7.446;2024-03-25T10:23:19;6.80;;;1.47;;
36185;SDS011;22228;53.222;7.446;2024-03-25T10:26:40;7.07;;;1.57;;
36185;SDS011;22228;53.222;7.446;2024-03-25T10:30:02;4.17;;;1.30;;
36185;SDS011;22228;53.222;7.446;2024-03-25T10:33:22;6.93;;;1.80;;
36185;SDS011;22228;53.222;7.446;2024-03-25T10:36:42;4.50;;;1.03;;
36185;SDS011;22228;53.222;7.446;2024-03-25T10:40:02;7.97;;;1.63;;
36185;SDS011;22228;53.222;7.446;2024-03-25T10:43:24;10.90;;;1.57;;
36185;SDS011;22228;53.222;7.446;2024-03-25T10:46:48;4.80;;;1.43;;
36185;SDS011;22228;53.222;7.446;2024-03-25T10:50:10;5.00;;;1.77;;
36185;SDS011;22228;53.222;7.446;2024-03-25T10:53:34;5.43;;;1.10;;
36185;SDS011;22228;53.222;7.446;2024-03-25T10:56:55;8.23;;;1.40;;
36185;SDS011;22228;53.222;7.446;2024-03-25T11:00:18;4.93;;;1.20;;
36185;SDS011;22228;53.222;7.446;2024-03-25T11:03:38;4.67;;;1.10;;
36185;SDS011;22228;53.222;7.446;2024-03-25T11:07:06;2.27;;;1.10;;
36185;SDS011;22228;53.222;7.446;2024-03-25T11:10:28;2.53;;;1.03;;
36185;SDS011;22228;53.222;7.446;2024-03-25T11:13:48;4.90;;;1.10;;
36185;SDS011;22228;53.222;7.446;2024-03-25T11:17:15;2.70;;;0.97;;
36185;SDS011;22228;53.222;7.446;2024-03-25T11:20:34;4.10;;;0.90;;
36185;SDS011;22228;53.222;7.446;2024-03-25T11:23:54;5.40;;;1.17;;
36185;SDS011;22228;53.222;7.446;2024-03-25T11:27:13;4.53;;;0.80;;
36185;SDS011;22228;53.222;7.446;2024-03-25T11:30:33;3.70;;;0.97;;
36185;SDS011;22228;53.222;7.446;2024-03-25T11:33:56;2.50;;;0.80;;
36185;SDS011;22228;53.222;7.446;2024-03-25T11:37:16;4.63;;;0.80;;
36185;SDS011;22228;53.222;7.446;2024-03-25T11:40:35;3.57;;;0.63;;
36185;SDS011;22228;53.222;7.446;2024-03-25T11:43:55;4.50;;;0.93;;
36185;SDS011;22228;53.222;7.446;2024-03-25T11:47:14;1.80;;;0.50;;
36185;SDS011;22228;53.222;7.446;2024-03-25T11:50:35;2.70;;;0.60;;
36185;SDS011;22228;53.222;7.446;2024-03-25T11:53:55;3.13;;;0.70;;
36185;SDS011;22228;53.222;7.446;2024-03-25T11:57:15;7.63;;;0.90;;
36185;SDS011;22228;53.222;7.446;2024-03-25T12:00:35;3.50;;;0.80;;
36185;SDS011;22228;53.222;7.446;2024-03-25T12:03:54;2.93;;;0.90;;
36185;SDS011;22228;53.222;7.446;2024-03-25T12:07:15;4.10;;;1.00;;
36185;SDS011;22228;53.222;7.446;2024-03-25T12:10:35;3.07;;;0.60;;
36185;SDS011;22228;53.222;7.446;2024-03-25T12:14:14;3.10;;;0.60;;
36185;SDS011;22228;53.222;7.446;2024-03-25T12:17:34;4.70;;;0.90;;
36185;SDS011;22228;53.222;7.446;2024-03-25T12:20:53;4.40;;;0.87;;
36185;SDS011;22228;53.222;7.446;2024-03-25T12:24:17;6.10;;;0.90;;
36185;SDS011;22228;53.222;7.446;2024-03-25T12:27:37;3.67;;;0.90;;
36185;SDS011;22228;53.222;7.446;2024-03-25T12:30:57;3.40;;;0.83;;
36185;SDS011;22228;53.222;7.446;2024-03-25T12:34:17;5.27;;;1.07;;
36185;SDS011;22228;53.222;7.446;2024-03-25T12:37:37;5.33;;;1.07;;
36185;SDS011;22228;53.222;7.446;2024-03-25T12:41:04;4.07;;;1.07;;
36185;SDS011;22228;53.222;7.446;2024-03-25T12:44:25;4.60;;;1.10;;
36185;SDS011;22228;53.222;7.446;2024-03-25T12:47:44;4.87;;;0.97;;
36185;SDS011;22228;53.222;7.446;2024-03-25T12:51:04;7.20;;;1.17;;
36185;SDS011;22228;53.222;7.446;2024-03-25T12:54:24;4.87;;;0.87;;
36185;SDS011;22228;53.222;7.446;2024-03-25T12:57:45;6.70;;;0.80;;
36185;SDS011;22228;53.222;7.446;2024-03-25T13:05:10;4.00;;;1.13;;
36185;SDS011;22228;53.222;7.446;2024-03-25T13:08:29;2.07;;;0.80;;
36185;SDS011;22228;53.222;7.446;2024-03-25T13:11:49;3.63;;;1.00;;
36185;SDS011;22228;53.222;7.446;2024-03-25T13:15:10;3.23;;;0.70;;
36185;SDS011;22228;53.222;7.446;2024-03-25T13:18:30;2.73;;;0.83;;
36185;SDS011;22228;53.222;7.446;2024-03-25T13:21:49;4.57;;;0.90;;
36185;SDS011;22228;53.222;7.446;2024-03-25T13:25:09;3.40;;;1.13;;
36185;SDS011;22228;53.222;7.446;2024-03-25T13:28:29;5.47;;;0.90;;
36185;SDS011;22228;53.222;7.446;2024-03-25T13:31:50;4.73;;;1.03;;
36185;SDS011;22228;53.222;7.446;2024-03-25T13:35:09;3.33;;;0.83;;
36185;SDS011;22228;53.222;7.446;2024-03-25T13:38:29;2.77;;;0.70;;
36185;SDS011;22228;53.222;7.446;2024-03-25T13:41:49;3.57;;;0.90;;
36185;SDS011;22228;53.222;7.446;2024-03-25T13:45:08;3.80;;;1.00;;
36185;SDS011;22228;53.222;7.446;2024-03-25T13:48:29;2.40;;;0.70;;
36185;SDS011;22228;53.222;7.446;2024-03-25T13:51:50;2.37;;;0.80;;
36185;SDS011;22228;53.222;7.446;2024-03-25T13:55:14;3.17;;;0.80;;
36185;SDS011;22228;53.222;7.446;2024-03-25T13:58:34;4.87;;;0.90;;
36185;SDS011;22228;53.222;7.446;2024-03-25T14:01:53;1.57;;;0.70;;
36185;SDS011;22228;53.222;7.446;2024-03-25T14:05:15;2.13;;;0.80;;
36185;SDS011;22228;53.222;7.446;2024-03-25T14:08:34;3.50;;;0.80;;
36185;SDS011;22228;53.222;7.446;2024-03-25T14:11:54;3.73;;;0.80;;
36185;SDS011;22228;53.222;7.446;2024-03-25T14:15:14;5.43;;;0.73;;
36185;SDS011;22228;53.222;7.446;2024-03-25T14:18:33;4.20;;;1.17;;
36185;SDS011;22228;53.222;7.446;2024-03-25T14:21:54;3.17;;;0.77;;
36185;SDS011;22228;53.222;7.446;2024-03-25T14:25:14;3.40;;;0.93;;
36185;SDS011;22228;53.222;7.446;2024-03-25T14:28:33;3.80;;;0.90;;
36185;SDS011;22228;53.222;7.446;2024-03-25T14:31:53;5.10;;;0.90;;
36185;SDS011;22228;53.222;7.446;2024-03-25T14:35:13;4.90;;;1.20;;
36185;SDS011;22228;53.222;7.446;2024-03-25T14:38:34;4.97;;;0.90;;
36185;SDS011;22228;53.222;7.446;2024-03-25T14:41:54;4.13;;;1.00;;
36185;SDS011;22228;53.222;7.446;2024-03-25T14:45:13;2.80;;;0.97;;
36185;SDS011;22228;53.222;7.446;2024-03-25T14:48:33;4.07;;;0.90;;
36185;SDS011;22228;53.222;7.446;2024-03-25T14:51:52;4.87;;;0.90;;
36185;SDS011;22228;53.222;7.446;2024-03-25T14:55:14;4.97;;;1.40;;
36185;SDS011;22228;53.222;7.446;2024-03-25T14:58:33;2.47;;;0.80;;
36185;SDS011;22228;53.222;7.446;2024-03-25T15:01:52;3.93;;;1.07;;
36185;SDS011;22228;53.222;7.446;2024-03-25T15:05:12;3.70;;;1.10;;
36185;SDS011;22228;53.222;7.446;2024-03-25T15:08:32;2.50;;;0.87;;
36185;SDS011;22228;53.222;7.446;2024-03-25T15:11:53;4.87;;;0.90;;
36185;SDS011;22228;53.222;7.446;2024-03-25T15:15:12;3.73;;;0.90;;
36185;SDS011;22228;53.222;7.446;2024-03-25T15:18:32;5.23;;;1.40;;
36185;SDS011;22228;53.222;7.446;2024-03-25T15:21:52;3.33;;;0.93;;
36185;SDS011;22228;53.222;7.446;2024-03-25T15:25:11;1.87;;;0.80;;
36185;SDS011;22228;53.222;7.446;2024-03-25T15:28:32;2.23;;;0.90;;
36185;SDS011;22228;53.222;7.446;2024-03-25T15:31:52;3.13;;;1.30;;
36185;SDS011;22228;53.222;7.446;2024-03-25T15:35:11;3.20;;;0.90;;
36185;SDS011;22228;53.222;7.446;2024-03-25T15:38:31;6.30;;;1.13;;
36185;SDS011;22228;53.222;7.446;2024-03-25T15:41:51;3.30;;;0.87;;
36185;SDS011;22228;53.222;7.446;2024-03-25T15:45:12;4.37;;;1.13;;
36185;SDS011;22228;53.222;7.446;2024-03-25T15:48:31;2.77;;;0.83;;
36185;SDS011;22228;53.222;7.446;2024-03-25T15:51:51;2.47;;;0.90;;
36185;SDS011;22228;53.222;7.446;2024-03-25T15:55:11;3.50;;;1.03;;
36185;SDS011;22228;53.222;7.446;2024-03-25T15:58:31;4.43;;;0.90;;
36185;SDS011;22228;53.222;7.446;2024-03-25T16:01:52;4.00;;;0.90;;
36185;SDS011;22228;53.222;7.446;2024-03-25T16:05:11;2.93;;;1.00;;
36185;SDS011;22228;53.222;7.446;2024-03-25T16:08:31;2.87;;;1.00;;
36185;SDS011;22228;53.222;7.446;2024-03-25T16:11:51;3.23;;;1.00;;
36185;SDS011;22228;53.222;7.446;2024-03-25T16:15:10;3.33;;;0.85;;
36185;SDS011;22228;53.222;7.446;2024-03-25T16:18:31;2.30;;;0.80;;
36185;SDS011;22228;53.222;7.446;2024-03-25T16:21:51;3.13;;;1.00;;
36185;SDS011;22228;53.222;7.446;2024-03-25T16:25:10;3.40;;;0.80;;
36185;SDS011;22228;53.222;7.446;2024-03-25T16:28:31;3.63;;;0.77;;
36185;SDS011;22228;53.222;7.446;2024-03-25T16:31:50;2.77;;;0.70;;
36185;SDS011;22228;53.222;7.446;2024-03-25T16:35:11;3.20;;;0.90;;
36185;SDS011;22228;53.222;7.446;2024-03-25T16:38:31;3.17;;;1.00;;
36185;SDS011;22228;53.222;7.446;2024-03-25T16:41:51;2.47;;;0.70;;
36185;SDS011;22228;53.222;7.446;2024-03-25T16:45:10;1.87;;;0.97;;
36185;SDS011;22228;53.222;7.446;2024-03-25T16:48:30;6.17;;;1.00;;
36185;SDS011;22228;53.222;7.446;2024-03-25T16:51:51;2.23;;;0.70;;
36185;SDS011;22228;53.222;7.446;2024-03-25T16:55:10;5.00;;;1.23;;
36185;SDS011;22228;53.222;7.446;2024-03-25T16:58:30;3.50;;;0.90;;
36185;SDS011;22228;53.222;7.446;2024-03-25T17:01:49;3.97;;;0.93;;
36185;SDS011;22228;53.222;7.446;2024-03-25T17:05:09;3.00;;;1.00;;
36185;SDS011;22228;53.222;7.446;2024-03-25T17:08:30;3.67;;;1.13;;
36185;SDS011;22228;53.222;7.446;2024-03-25T17:11:49;4.37;;;1.00;;
36185;SDS011;22228;53.222;7.446;2024-03-25T17:15:09;2.57;;;1.00;;
36185;SDS011;22228;53.222;7.446;2024-03-25T17:18:29;3.17;;;1.00;;
36185;SDS011;22228;53.222;7.446;2024-03-25T17:21:48;4.10;;;1.10;;
36185;SDS011;22228;53.222;7.446;2024-03-25T17:25:09;3.47;;;1.00;;
36185;SDS011;22228;53.222;7.446;2024-03-25T17:28:29;3.00;;;0.90;;
36185;SDS011;22228;53.222;7.446;2024-03-25T17:31:49;2.57;;;1.00;;
36185;SDS011;22228;53.222;7.446;2024-03-25T17:35:09;3.10;;;0.80;;
36185;SDS011;22228;53.222;7.446;2024-03-25T17:38:29;3.60;;;1.10;;
36185;SDS011;22228;53.222;7.446;2024-03-25T17:41:50;2.80;;;0.70;;
36185;SDS011;22228;53.222;7.446;2024-03-25T17:45:09;5.43;;;0.80;;
36185;SDS011;22228;53.222;7.446;2024-03-25T17:48:29;4.97;;;1.20;;
36185;SDS011;22228;53.222;7.446;2024-03-25T17:51:50;5.20;;;0.90;;
36185;SDS011;22228;53.222;7.446;2024-03-25T17:55:09;5.50;;;1.30;;
36185;SDS011;22228;53.222;7.446;2024-03-25T17:58:30;2.73;;;1.00;;
36185;SDS011;22228;53.222;7.446;2024-03-25T18:01:50;5.53;;;0.87;;
36185;SDS011;22228;53.222;7.446;2024-03-25T18:05:09;2.63;;;1.13;;
36185;SDS011;22228;53.222;7.446;2024-03-25T18:08:29;5.73;;;1.10;;
36185;SDS011;22228;53.222;7.446;2024-03-25T18:11:49;4.47;;;1.17;;
36185;SDS011;22228;53.222;7.446;2024-03-25T18:15:10;2.30;;;0.83;;
36185;SDS011;22228;53.222;7.446;2024-03-25T18:18:29;4.53;;;1.23;;
36185;SDS011;22228;53.222;7.446;2024-03-25T18:21:49;5.47;;;1.10;;
36185;SDS011;22228;53.222;7.446;2024-03-25T18:25:09;4.43;;;1.50;;
36185;SDS011;22228;53.222;7.446;2024-03-25T18:28:28;4.03;;;1.10;;
36185;SDS011;22228;53.222;7.446;2024-03-25T18:31:49;4.37;;;1.20;;
36185;SDS011;22228;53.222;7.446;2024-03-25T18:35:09;6.93;;;1.50;;
36185;SDS011;22228;53.222;7.446;2024-03-25T18:38:28;4.33;;;1.40;;
36185;SDS011;22228;53.222;7.446;2024-03-25T18:41:48;4.97;;;1.30;;
36185;SDS011;22228;53.222;7.446;2024-03-25T18:45:08;7.53;;;1.57;;
36185;SDS011;22228;53.222;7.446;2024-03-25T18:48:29;6.73;;;2.00;;
36185;SDS011;22228;53.222;7.446;2024-03-25T18:51:49;4.80;;;1.50;;
36185;SDS011;22228;53.222;7.446;2024-03-25T18:55:08;2.50;;;1.33;;
36185;SDS011;22228;53.222;7.446;2024-03-25T18:58:28;3.90;;;1.87;;
36185;SDS011;22228;53.222;7.446;2024-03-25T19:01:47;5.47;;;1.83;;
36185;SDS011;22228;53.222;7.446;2024-03-25T19:05:08;6.77;;;2.50;;
36185;SDS011;22228;53.222;7.446;2024-03-25T19:08:28;4.20;;;2.67;;
36185;SDS011;22228;53.222;7.446;2024-03-25T19:11:48;6.37;;;3.30;;
36185;SDS011;22228;53.222;7.446;2024-03-25T19:15:08;6.20;;;2.80;;
36185;SDS011;22228;53.222;7.446;2024-03-25T19:18:28;6.60;;;2.53;;
36185;SDS011;22228;53.222;7.446;2024-03-25T19:21:49;6.87;;;3.10;;
36185;SDS011;22228;53.222;7.446;2024-03-25T19:25:08;8.50;;;3.70;;
36185;SDS011;22228;53.222;7.446;2024-03-25T19:28:28;6.07;;;3.13;;
36185;SDS011;22228;53.222;7.446;2024-03-25T19:31:48;6.27;;;2.10;;
36185;SDS011;22228;53.222;7.446;2024-03-25T19:35:08;6.70;;;2.23;;
36185;SDS011;22228;53.222;7.446;2024-03-25T19:38:29;5.43;;;1.60;;
36185;SDS011;22228;53.222;7.446;2024-03-25T19:41:48;7.53;;;2.07;;
36185;SDS011;22228;53.222;7.446;2024-03-25T19:45:08;7.93;;;1.90;;
36185;SDS011;22228;53.222;7.446;2024-03-25T19:48:28;4.23;;;2.10;;
36185;SDS011;22228;53.222;7.446;2024-03-25T19:51:48;5.00;;;1.67;;
36185;SDS011;22228;53.222;7.446;2024-03-25T19:55:09;6.87;;;2.60;;
36185;SDS011;22228;53.222;7.446;2024-03-25T19:58:28;3.70;;;1.80;;
36185;SDS011;22228;53.222;7.446;2024-03-25T20:01:48;4.97;;;2.13;;
36185;SDS011;22228;53.222;7.446;2024-03-25T20:05:08;6.00;;;2.27;;
36185;SDS011;22228;53.222;7.446;2024-03-25T20:08:28;5.80;;;2.00;;
36185;SDS011;22228;53.222;7.446;2024-03-25T20:11:48;6.23;;;1.93;;
36185;SDS011;22228;53.222;7.446;2024-03-25T20:15:08;7.07;;;2.30;;
36185;SDS011;22228;53.222;7.446;2024-03-25T20:18:28;4.30;;;2.07;;
36185;SDS011;22228;53.222;7.446;2024-03-25T20:21:47;5.17;;;2.17;;
36185;SDS011;22228;53.222;7.446;2024-03-25T20:25:07;4.40;;;2.10;;
36185;SDS011;22228;53.222;7.446;2024-03-25T20:28:29;11.30;;;2.60;;
36185;SDS011;22228;53.222;7.446;2024-03-25T20:31:49;3.73;;;2.03;;
36185;SDS011;22228;53.222;7.446;2024-03-25T20:35:09;8.07;;;2.20;;
36185;SDS011;22228;53.222;7.446;2024-03-25T20:38:28;6.57;;;2.80;;
36185;SDS011;22228;53.222;7.446;2024-03-25T20:41:48;7.10;;;2.70;;
36185;SDS011;22228;53.222;7.446;2024-03-25T20:45:09;6.40;;;2.47;;
36185;SDS011;22228;53.222;7.446;2024-03-25T20:48:29;7.17;;;2.27;;
36185;SDS011;22228;53.222;7.446;2024-03-25T20:51:48;4.93;;;2.13;;
36185;SDS011;22228;53.222;7.446;2024-03-25T20:55:08;7.27;;;2.70;;
36185;SDS011;22228;53.222;7.446;2024-03-25T20:58:28;7.03;;;2.63;;
36185;SDS011;22228;53.222;7.446;2024-03-25T21:01:49;6.53;;;3.13;;
36185;SDS011;22228;53.222;7.446;2024-03-25T21:05:09;5.03;;;3.03;;
36185;SDS011;22228;53.222;7.446;2024-03-25T21:08:28;6.20;;;3.00;;
36185;SDS011;22228;53.222;7.446;2024-03-25T21:11:48;4.97;;;2.93;;
36185;SDS011;22228;53.222;7.446;2024-03-25T21:15:08;7.20;;;3.50;;
36185;SDS011;22228;53.222;7.446;2024-03-25T21:18:28;5.30;;;3.00;;
36185;SDS011;22228;53.222;7.446;2024-03-25T21:21:49;7.37;;;3.20;;
36185;SDS011;22228;53.222;7.446;2024-03-25T21:25:09;4.73;;;2.87;;
36185;SDS011;22228;53.222;7.446;2024-03-25T21:28:29;4.97;;;3.43;;
36185;SDS011;22228;53.222;7.446;2024-03-25T21:31:48;4.00;;;3.20;;
36185;SDS011;22228;53.222;7.446;2024-03-25T21:35:09;9.00;;;3.87;;
36185;SDS011;22228;53.222;7.446;2024-03-25T21:38:29;7.87;;;3.57;;
36185;SDS011;22228;53.222;7.446;2024-03-25T21:41:49;8.57;;;3.63;;
36185;SDS011;22228;53.222;7.446;2024-03-25T21:45:08;4.37;;;3.30;;
36185;SDS011;22228;53.222;7.446;2024-03-25T21:48:28;6.80;;;3.17;;
36185;SDS011;22228;53.222;7.446;2024-03-25T21:51:49;8.23;;;4.03;;
36185;SDS011;22228;53.222;7.446;2024-03-25T21:55:08;13.80;;;4.50;;
36185;SDS011;22228;53.222;7.446;2024-03-25T21:58:28;7.00;;;3.67;;
36185;SDS011;22228;53.222;7.446;2024-03-25T22:01:47;9.73;;;3.60;;
36185;SDS011;22228;53.222;7.446;2024-03-25T22:05:07;10.57;;;4.33;;
36185;SDS011;22228;53.222;7.446;2024-03-25T22:08:28;10.97;;;3.87;;
36185;SDS011;22228;53.222;7.446;2024-03-25T22:11:48;7.67;;;3.70;;
36185;SDS011;22228;53.222;7.446;2024-03-25T22:15:08;7.60;;;4.13;;
36185;SDS011;22228;53.222;7.446;2024-03-25T22:18:27;4.77;;;3.53;;
36185;SDS011;22228;53.222;7.446;2024-03-25T22:21:47;8.00;;;3.97;;
36185;SDS011;22228;53.222;7.446;2024-03-25T22:25:08;9.70;;;4.10;;
36185;SDS011;22228;53.222;7.446;2024-03-25T22:28:28;10.97;;;4.53;;
36185;SDS011;22228;53.222;7.446;2024-03-25T22:31:47;9.07;;;4.40;;
36185;SDS011;22228;53.222;7.446;2024-03-25T22:35:07;7.90;;;4.17;;
36185;SDS011;22228;53.222;7.446;2024-03-25T22:38:27;7.73;;;4.10;;
36185;SDS011;22228;53.222;7.446;2024-03-25T22:41:47;9.20;;;4.23;;
36185;SDS011;22228;53.222;7.446;2024-03-25T22:45:07;6.83;;;4.30;;
36185;SDS011;22228;53.222;7.446;2024-03-25T22:48:27;6.77;;;4.50;;
36185;SDS011;22228;53.222;7.446;2024-03-25T22:51:47;7.80;;;4.03;;
36185;SDS011;22228;53.222;7.446;2024-03-25T22:55:07;11.20;;;4.80;;